sensor_id;sensor_type;location;lat;lon;timestamp;P1;durP1;ratioP1;P2;durP2;ratioP2
19543;SDS011;9917;51.256;7.152;2023-02-28T00:02:05;8.37;;;3.90;;
19543;SDS011;9917;51.256;7.152;2023-02-28T00:04:30;10.10;;;4.60;;
19543;SDS011;9917;51.256;7.152;2023-02-28T00:06:56;6.63;;;3.73;;
19543;SDS011;9917;51.256;7.152;2023-02-28T00:09:22;6.43;;;3.63;;
19543;SDS011;9917;51.256;7.152;2023-02-28T00:11:48;7.93;;;3.67;;
19543;SDS011;9917;51.256;7.152;2023-02-28T00:14:15;7.00;;;3.07;;
19543;SDS011;9917;51.256;7.152;2023-02-28T00:16:40;5.23;;;3.20;;
19543;SDS011;9917;51.256;7.152;2023-02-28T00:19:06;6.67;;;3.93;;
19543;SDS011;9917;51.256;7.152;2023-02-28T00:21:32;7.97;;;4.23;;
19543;SDS011;9917;51.256;7.152;2023-02-28T00:23:57;10.03;;;3.93;;
19543;SDS011;9917;51.256;7.152;2023-02-28T00:26:23;5.40;;;3.40;;
19543;SDS011;9917;51.256;7.152;2023-02-28T00:28:49;5.20;;;3.60;;
19543;SDS011;9917;51.256;7.152;2023-02-28T00:31:21;5.93;;;3.37;;
19543;SDS011;9917;51.256;7.152;2023-02-28T00:33:46;7.37;;;3.40;;
19543;SDS011;9917;51.256;7.152;2023-02-28T00:36:14;6.03;;;3.40;;
19543;SDS011;9917;51.256;7.152;2023-02-28T00:38:40;6.77;;;3.20;;
19543;SDS011;9917;51.256;7.152;2023-02-28T00:41:06;4.47;;;3.30;;
19543;SDS011;9917;51.256;7.152;2023-02-28T00:43:33;6.43;;;4.00;;
19543;SDS011;9917;51.256;7.152;2023-02-28T00:46:00;7.17;;;3.60;;
19543;SDS011;9917;51.256;7.152;2023-02-28T00:48:27;5.70;;;3.63;;
19543;SDS011;9917;51.256;7.152;2023-02-28T00:50:53;7.97;;;4.30;;
19543;SDS011;9917;51.256;7.152;2023-02-28T00:53:19;6.27;;;4.43;;
19543;SDS011;9917;51.256;7.152;2023-02-28T00:55:45;10.67;;;4.63;;
19543;SDS011;9917;51.256;7.152;2023-02-28T00:58:10;11.77;;;4.87;;
19543;SDS011;9917;51.256;7.152;2023-02-28T01:00:36;9.57;;;4.20;;
19543;SDS011;9917;51.256;7.152;2023-02-28T01:03:02;7.33;;;4.40;;
19543;SDS011;9917;51.256;7.152;2023-02-28T01:05:29;7.00;;;3.73;;
19543;SDS011;9917;51.256;7.152;2023-02-28T01:07:55;8.43;;;4.17;;
19543;SDS011;9917;51.256;7.152;2023-02-28T01:10:20;9.17;;;4.50;;
19543;SDS011;9917;51.256;7.152;2023-02-28T01:12:46;9.27;;;4.70;;
19543;SDS011;9917;51.256;7.152;2023-02-28T01:15:12;6.83;;;3.80;;
19543;SDS011;9917;51.256;7.152;2023-02-28T01:17:38;6.50;;;4.27;;
19543;SDS011;9917;51.256;7.152;2023-02-28T01:20:04;9.00;;;3.80;;
19543;SDS011;9917;51.256;7.152;2023-02-28T01:22:31;9.40;;;3.70;;
19543;SDS011;9917;51.256;7.152;2023-02-28T01:24:59;9.47;;;4.20;;
19543;SDS011;9917;51.256;7.152;2023-02-28T01:27:24;6.17;;;3.73;;
19543;SDS011;9917;51.256;7.152;2023-02-28T01:29:50;6.50;;;3.93;;
19543;SDS011;9917;51.256;7.152;2023-02-28T01:32:16;7.60;;;3.70;;
19543;SDS011;9917;51.256;7.152;2023-02-28T01:34:41;6.87;;;3.80;;
19543;SDS011;9917;51.256;7.152;2023-02-28T01:37:07;7.90;;;3.97;;
19543;SDS011;9917;51.256;7.152;2023-02-28T01:39:34;8.70;;;4.10;;
19543;SDS011;9917;51.256;7.152;2023-02-28T01:42:00;6.63;;;3.80;;
19543;SDS011;9917;51.256;7.152;2023-02-28T01:47:33;6.00;;;4.23;;
19543;SDS011;9917;51.256;7.152;2023-02-28T01:50:04;7.57;;;4.20;;
19543;SDS011;9917;51.256;7.152;2023-02-28T01:52:34;8.97;;;3.97;;
19543;SDS011;9917;51.256;7.152;2023-02-28T01:55:02;7.70;;;4.20;;
19543;SDS011;9917;51.256;7.152;2023-02-28T01:57:32;7.30;;;4.40;;
19543;SDS011;9917;51.256;7.152;2023-02-28T02:00:05;9.43;;;4.60;;
19543;SDS011;9917;51.256;7.152;2023-02-28T02:02:32;10.03;;;4.93;;
19543;SDS011;9917;51.256;7.152;2023-02-28T02:04:59;9.53;;;4.73;;
19543;SDS011;9917;51.256;7.152;2023-02-28T02:07:29;7.80;;;4.43;;
19543;SDS011;9917;51.256;7.152;2023-02-28T02:10:02;7.83;;;3.77;;
19543;SDS011;9917;51.256;7.152;2023-02-28T02:12:32;7.07;;;4.47;;
19543;SDS011;9917;51.256;7.152;2023-02-28T02:15:09;8.20;;;4.10;;
19543;SDS011;9917;51.256;7.152;2023-02-28T02:17:40;8.13;;;4.70;;
19543;SDS011;9917;51.256;7.152;2023-02-28T02:20:22;9.83;;;4.43;;
19543;SDS011;9917;51.256;7.152;2023-02-28T02:23:33;10.73;;;4.47;;
19543;SDS011;9917;51.256;7.152;2023-02-28T02:26:28;5.33;;;4.10;;
19543;SDS011;9917;51.256;7.152;2023-02-28T02:29:28;7.43;;;4.30;;
19543;SDS011;9917;51.256;7.152;2023-02-28T02:32:41;7.77;;;4.50;;
19543;SDS011;9917;51.256;7.152;2023-02-28T02:35:15;8.43;;;5.03;;
19543;SDS011;9917;51.256;7.152;2023-02-28T02:37:47;9.10;;;4.30;;
19543;SDS011;9917;51.256;7.152;2023-02-28T02:40:17;7.90;;;5.07;;
19543;SDS011;9917;51.256;7.152;2023-02-28T02:42:47;9.60;;;4.63;;
19543;SDS011;9917;51.256;7.152;2023-02-28T02:45:17;7.00;;;4.90;;
19543;SDS011;9917;51.256;7.152;2023-02-28T02:47:47;6.50;;;4.40;;
19543;SDS011;9917;51.256;7.152;2023-02-28T02:50:17;9.47;;;5.17;;
19543;SDS011;9917;51.256;7.152;2023-02-28T02:52:48;6.87;;;4.37;;
19543;SDS011;9917;51.256;7.152;2023-02-28T02:55:17;8.47;;;4.63;;
19543;SDS011;9917;51.256;7.152;2023-02-28T02:57:45;9.40;;;5.80;;
19543;SDS011;9917;51.256;7.152;2023-02-28T03:00:14;7.87;;;4.80;;
19543;SDS011;9917;51.256;7.152;2023-02-28T03:02:41;9.13;;;5.13;;
19543;SDS011;9917;51.256;7.152;2023-02-28T03:05:12;8.73;;;5.10;;
19543;SDS011;9917;51.256;7.152;2023-02-28T03:07:44;6.00;;;4.20;;
19543;SDS011;9917;51.256;7.152;2023-02-28T03:10:26;10.17;;;4.73;;
19543;SDS011;9917;51.256;7.152;2023-02-28T03:13:04;9.00;;;4.80;;
19543;SDS011;9917;51.256;7.152;2023-02-28T03:15:55;8.33;;;5.00;;
19543;SDS011;9917;51.256;7.152;2023-02-28T03:18:34;8.60;;;4.90;;
19543;SDS011;9917;51.256;7.152;2023-02-28T03:21:09;6.93;;;4.97;;
19543;SDS011;9917;51.256;7.152;2023-02-28T03:23:46;10.30;;;5.40;;
19543;SDS011;9917;51.256;7.152;2023-02-28T03:26:19;8.93;;;5.10;;
19543;SDS011;9917;51.256;7.152;2023-02-28T03:28:51;12.13;;;5.60;;
19543;SDS011;9917;51.256;7.152;2023-02-28T03:31:21;11.87;;;5.30;;
19543;SDS011;9917;51.256;7.152;2023-02-28T03:33:51;12.07;;;5.40;;
19543;SDS011;9917;51.256;7.152;2023-02-28T03:36:25;10.73;;;6.03;;
19543;SDS011;9917;51.256;7.152;2023-02-28T03:38:54;9.43;;;5.77;;
19543;SDS011;9917;51.256;7.152;2023-02-28T03:41:23;13.60;;;6.37;;
19543;SDS011;9917;51.256;7.152;2023-02-28T03:43:55;9.27;;;6.30;;
19543;SDS011;9917;51.256;7.152;2023-02-28T03:46:25;9.57;;;5.87;;
19543;SDS011;9917;51.256;7.152;2023-02-28T03:48:54;9.27;;;6.23;;
19543;SDS011;9917;51.256;7.152;2023-02-28T03:51:26;8.00;;;6.07;;
19543;SDS011;9917;51.256;7.152;2023-02-28T03:53:54;9.23;;;5.83;;
19543;SDS011;9917;51.256;7.152;2023-02-28T03:56:24;11.47;;;6.47;;
19543;SDS011;9917;51.256;7.152;2023-02-28T03:58:57;11.67;;;6.20;;
19543;SDS011;9917;51.256;7.152;2023-02-28T04:01:28;10.97;;;5.83;;
19543;SDS011;9917;51.256;7.152;2023-02-28T04:03:58;11.57;;;5.93;;
19543;SDS011;9917;51.256;7.152;2023-02-28T04:06:24;8.73;;;5.53;;
19543;SDS011;9917;51.256;7.152;2023-02-28T04:08:51;10.03;;;5.80;;
19543;SDS011;9917;51.256;7.152;2023-02-28T04:11:19;9.00;;;5.70;;
19543;SDS011;9917;51.256;7.152;2023-02-28T04:13:47;7.90;;;5.70;;
19543;SDS011;9917;51.256;7.152;2023-02-28T04:16:12;8.90;;;5.77;;
19543;SDS011;9917;51.256;7.152;2023-02-28T04:18:38;9.17;;;5.57;;
19543;SDS011;9917;51.256;7.152;2023-02-28T04:21:04;9.07;;;5.50;;
19543;SDS011;9917;51.256;7.152;2023-02-28T04:23:30;8.10;;;5.93;;
19543;SDS011;9917;51.256;7.152;2023-02-28T04:25:57;9.37;;;5.17;;
19543;SDS011;9917;51.256;7.152;2023-02-28T04:28:24;9.50;;;5.37;;
19543;SDS011;9917;51.256;7.152;2023-02-28T04:30:54;10.03;;;5.90;;
19543;SDS011;9917;51.256;7.152;2023-02-28T04:33:22;10.13;;;5.57;;
19543;SDS011;9917;51.256;7.152;2023-02-28T04:35:59;8.67;;;5.60;;
19543;SDS011;9917;51.256;7.152;2023-02-28T04:38:29;8.20;;;5.53;;
19543;SDS011;9917;51.256;7.152;2023-02-28T04:40:58;10.33;;;5.40;;
19543;SDS011;9917;51.256;7.152;2023-02-28T04:43:24;7.40;;;4.97;;
19543;SDS011;9917;51.256;7.152;2023-02-28T04:45:51;8.33;;;4.73;;
19543;SDS011;9917;51.256;7.152;2023-02-28T04:48:16;7.47;;;5.40;;
19543;SDS011;9917;51.256;7.152;2023-02-28T04:50:42;7.43;;;4.70;;
19543;SDS011;9917;51.256;7.152;2023-02-28T04:53:08;7.67;;;4.77;;
19543;SDS011;9917;51.256;7.152;2023-02-28T04:55:33;7.63;;;5.10;;
19543;SDS011;9917;51.256;7.152;2023-02-28T04:58:01;7.70;;;4.70;;
19543;SDS011;9917;51.256;7.152;2023-02-28T05:00:27;6.50;;;4.50;;
19543;SDS011;9917;51.256;7.152;2023-02-28T05:02:53;10.37;;;5.27;;
19543;SDS011;9917;51.256;7.152;2023-02-28T05:05:19;9.20;;;5.10;;
19543;SDS011;9917;51.256;7.152;2023-02-28T05:07:44;8.90;;;5.13;;
19543;SDS011;9917;51.256;7.152;2023-02-28T05:10:10;12.40;;;4.67;;
19543;SDS011;9917;51.256;7.152;2023-02-28T05:12:36;6.70;;;4.37;;
19543;SDS011;9917;51.256;7.152;2023-02-28T05:15:04;7.77;;;4.70;;
19543;SDS011;9917;51.256;7.152;2023-02-28T05:17:30;8.27;;;4.57;;
19543;SDS011;9917;51.256;7.152;2023-02-28T05:19:56;9.87;;;4.70;;
19543;SDS011;9917;51.256;7.152;2023-02-28T05:22:22;6.37;;;4.33;;
19543;SDS011;9917;51.256;7.152;2023-02-28T05:24:48;9.33;;;4.73;;
19543;SDS011;9917;51.256;7.152;2023-02-28T05:27:14;8.57;;;4.83;;
19543;SDS011;9917;51.256;7.152;2023-02-28T05:29:39;9.87;;;5.03;;
19543;SDS011;9917;51.256;7.152;2023-02-28T05:32:06;8.97;;;4.90;;
19543;SDS011;9917;51.256;7.152;2023-02-28T05:34:33;7.77;;;5.00;;
19543;SDS011;9917;51.256;7.152;2023-02-28T05:36:59;10.57;;;5.87;;
19543;SDS011;9917;51.256;7.152;2023-02-28T05:39:25;8.33;;;5.03;;
19543;SDS011;9917;51.256;7.152;2023-02-28T05:41:50;8.93;;;5.10;;
19543;SDS011;9917;51.256;7.152;2023-02-28T05:44:16;9.63;;;5.23;;
19543;SDS011;9917;51.256;7.152;2023-02-28T05:46:42;8.17;;;5.13;;
19543;SDS011;9917;51.256;7.152;2023-02-28T05:49:09;8.27;;;4.80;;
19543;SDS011;9917;51.256;7.152;2023-02-28T05:51:34;8.77;;;5.40;;
19543;SDS011;9917;51.256;7.152;2023-02-28T05:54:01;8.47;;;4.57;;
19543;SDS011;9917;51.256;7.152;2023-02-28T05:56:26;6.10;;;4.87;;
19543;SDS011;9917;51.256;7.152;2023-02-28T05:58:53;10.80;;;5.00;;
19543;SDS011;9917;51.256;7.152;2023-02-28T06:01:20;9.30;;;5.13;;
19543;SDS011;9917;51.256;7.152;2023-02-28T06:03:48;11.23;;;5.00;;
19543;SDS011;9917;51.256;7.152;2023-02-28T06:06:15;8.30;;;4.80;;
19543;SDS011;9917;51.256;7.152;2023-02-28T06:08:41;8.23;;;4.57;;
19543;SDS011;9917;51.256;7.152;2023-02-28T06:11:07;10.60;;;5.17;;
19543;SDS011;9917;51.256;7.152;2023-02-28T06:13:32;6.30;;;4.53;;
19543;SDS011;9917;51.256;7.152;2023-02-28T06:16:00;6.20;;;4.43;;
19543;SDS011;9917;51.256;7.152;2023-02-28T06:18:26;6.47;;;4.83;;
19543;SDS011;9917;51.256;7.152;2023-02-28T06:20:52;10.67;;;4.90;;
19543;SDS011;9917;51.256;7.152;2023-02-28T06:23:20;5.93;;;4.60;;
19543;SDS011;9917;51.256;7.152;2023-02-28T06:25:46;6.97;;;4.60;;
19543;SDS011;9917;51.256;7.152;2023-02-28T06:28:12;9.30;;;5.00;;
19543;SDS011;9917;51.256;7.152;2023-02-28T06:30:37;8.43;;;5.47;;
19543;SDS011;9917;51.256;7.152;2023-02-28T06:33:03;6.90;;;4.57;;
19543;SDS011;9917;51.256;7.152;2023-02-28T06:35:29;6.70;;;4.80;;
19543;SDS011;9917;51.256;7.152;2023-02-28T06:37:55;18.00;;;9.63;;
19543;SDS011;9917;51.256;7.152;2023-02-28T06:40:22;38.67;;;17.13;;
19543;SDS011;9917;51.256;7.152;2023-02-28T06:42:48;47.80;;;22.80;;
19543;SDS011;9917;51.256;7.152;2023-02-28T06:45:14;28.17;;;13.57;;
19543;SDS011;9917;51.256;7.152;2023-02-28T06:47:40;20.60;;;10.53;;
19543;SDS011;9917;51.256;7.152;2023-02-28T06:50:09;26.20;;;11.80;;
19543;SDS011;9917;51.256;7.152;2023-02-28T06:52:35;16.73;;;9.40;;
19543;SDS011;9917;51.256;7.152;2023-02-28T06:55:01;13.60;;;6.10;;
19543;SDS011;9917;51.256;7.152;2023-02-28T06:57:29;7.10;;;5.27;;
19543;SDS011;9917;51.256;7.152;2023-02-28T06:59:56;11.87;;;5.70;;
19543;SDS011;9917;51.256;7.152;2023-02-28T07:02:22;10.10;;;5.13;;
19543;SDS011;9917;51.256;7.152;2023-02-28T07:04:48;7.03;;;4.90;;
19543;SDS011;9917;51.256;7.152;2023-02-28T07:07:14;9.00;;;4.83;;
19543;SDS011;9917;51.256;7.152;2023-02-28T07:09:39;6.40;;;4.73;;
19543;SDS011;9917;51.256;7.152;2023-02-28T07:12:05;9.30;;;4.90;;
19543;SDS011;9917;51.256;7.152;2023-02-28T07:14:32;6.77;;;4.97;;
19543;SDS011;9917;51.256;7.152;2023-02-28T07:16:58;9.73;;;4.83;;
19543;SDS011;9917;51.256;7.152;2023-02-28T07:19:23;7.47;;;5.17;;
19543;SDS011;9917;51.256;7.152;2023-02-28T07:21:49;10.00;;;4.87;;
19543;SDS011;9917;51.256;7.152;2023-02-28T07:24:15;7.33;;;5.30;;
19543;SDS011;9917;51.256;7.152;2023-02-28T07:26:41;7.90;;;5.10;;
19543;SDS011;9917;51.256;7.152;2023-02-28T07:29:06;8.23;;;5.60;;
19543;SDS011;9917;51.256;7.152;2023-02-28T07:31:33;10.67;;;5.80;;
19543;SDS011;9917;51.256;7.152;2023-02-28T07:33:59;8.80;;;5.40;;
19543;SDS011;9917;51.256;7.152;2023-02-28T07:36:25;9.67;;;5.60;;
19543;SDS011;9917;51.256;7.152;2023-02-28T07:38:51;8.83;;;5.23;;
19543;SDS011;9917;51.256;7.152;2023-02-28T07:41:17;10.43;;;5.23;;
19543;SDS011;9917;51.256;7.152;2023-02-28T07:43:44;7.57;;;5.07;;
19543;SDS011;9917;51.256;7.152;2023-02-28T07:46:10;13.47;;;5.77;;
19543;SDS011;9917;51.256;7.152;2023-02-28T07:48:39;9.73;;;6.70;;
19543;SDS011;9917;51.256;7.152;2023-02-28T07:51:04;8.83;;;5.60;;
19543;SDS011;9917;51.256;7.152;2023-02-28T07:53:30;9.17;;;5.37;;
19543;SDS011;9917;51.256;7.152;2023-02-28T07:55:56;11.57;;;5.90;;
19543;SDS011;9917;51.256;7.152;2023-02-28T07:58:22;12.40;;;4.70;;
19543;SDS011;9917;51.256;7.152;2023-02-28T08:00:48;8.57;;;5.20;;
19543;SDS011;9917;51.256;7.152;2023-02-28T08:03:13;9.40;;;4.53;;
19543;SDS011;9917;51.256;7.152;2023-02-28T08:05:44;12.37;;;4.83;;
19543;SDS011;9917;51.256;7.152;2023-02-28T08:08:10;8.30;;;4.30;;
19543;SDS011;9917;51.256;7.152;2023-02-28T08:10:36;12.80;;;5.97;;
19543;SDS011;9917;51.256;7.152;2023-02-28T08:13:02;14.63;;;6.07;;
19543;SDS011;9917;51.256;7.152;2023-02-28T08:15:28;5.38;;;3.97;;
19543;SDS011;9917;51.256;7.152;2023-02-28T08:17:53;8.52;;;3.80;;
19543;SDS011;9917;51.256;7.152;2023-02-28T08:20:19;8.85;;;4.40;;
19543;SDS011;9917;51.256;7.152;2023-02-28T08:22:46;8.93;;;5.30;;
19543;SDS011;9917;51.256;7.152;2023-02-28T08:25:12;7.68;;;4.10;;
19543;SDS011;9917;51.256;7.152;2023-02-28T08:27:38;9.85;;;5.05;;
19543;SDS011;9917;51.256;7.152;2023-02-28T08:30:04;6.50;;;3.65;;
19543;SDS011;9917;51.256;7.152;2023-02-28T08:32:31;4.50;;;3.60;;
19543;SDS011;9917;51.256;7.152;2023-02-28T08:34:57;8.98;;;3.80;;
19543;SDS011;9917;51.256;7.152;2023-02-28T08:37:23;5.50;;;3.67;;
19543;SDS011;9917;51.256;7.152;2023-02-28T08:39:50;6.32;;;3.47;;
19543;SDS011;9917;51.256;7.152;2023-02-28T08:42:16;5.15;;;3.25;;
19543;SDS011;9917;51.256;7.152;2023-02-28T08:44:41;4.47;;;2.80;;
19543;SDS011;9917;51.256;7.152;2023-02-28T08:47:07;3.72;;;2.40;;
19543;SDS011;9917;51.256;7.152;2023-02-28T08:49:33;4.22;;;2.53;;
19543;SDS011;9917;51.256;7.152;2023-02-28T08:51:59;3.33;;;1.80;;
19543;SDS011;9917;51.256;7.152;2023-02-28T08:54:24;2.45;;;1.55;;
19543;SDS011;9917;51.256;7.152;2023-02-28T08:56:51;4.95;;;1.83;;
19543;SDS011;9917;51.256;7.152;2023-02-28T08:59:17;2.25;;;1.58;;
19543;SDS011;9917;51.256;7.152;2023-02-28T09:01:43;2.90;;;1.92;;
19543;SDS011;9917;51.256;7.152;2023-02-28T09:04:09;3.92;;;2.17;;
19543;SDS011;9917;51.256;7.152;2023-02-28T09:06:35;3.30;;;1.65;;
19543;SDS011;9917;51.256;7.152;2023-02-28T09:09:01;4.32;;;1.70;;
19543;SDS011;9917;51.256;7.152;2023-02-28T09:11:27;3.00;;;1.67;;
19543;SDS011;9917;51.256;7.152;2023-02-28T09:13:55;3.67;;;1.75;;
19543;SDS011;9917;51.256;7.152;2023-02-28T09:16:21;2.25;;;1.52;;
19543;SDS011;9917;51.256;7.152;2023-02-28T09:18:47;2.53;;;1.30;;
19543;SDS011;9917;51.256;7.152;2023-02-28T09:21:13;3.30;;;1.52;;
19543;SDS011;9917;51.256;7.152;2023-02-28T09:23:40;3.88;;;1.48;;
19543;SDS011;9917;51.256;7.152;2023-02-28T09:26:06;2.78;;;1.33;;
19543;SDS011;9917;51.256;7.152;2023-02-28T09:28:38;3.53;;;1.55;;
19543;SDS011;9917;51.256;7.152;2023-02-28T09:31:05;2.88;;;1.45;;
19543;SDS011;9917;51.256;7.152;2023-02-28T09:33:31;2.75;;;1.20;;
19543;SDS011;9917;51.256;7.152;2023-02-28T09:35:57;3.28;;;1.23;;
19543;SDS011;9917;51.256;7.152;2023-02-28T09:38:24;3.33;;;1.33;;
19543;SDS011;9917;51.256;7.152;2023-02-28T09:40:51;2.15;;;1.23;;
19543;SDS011;9917;51.256;7.152;2023-02-28T09:43:20;2.78;;;1.52;;
19543;SDS011;9917;51.256;7.152;2023-02-28T09:45:48;3.65;;;1.45;;
19543;SDS011;9917;51.256;7.152;2023-02-28T09:48:19;4.70;;;1.60;;
19543;SDS011;9917;51.256;7.152;2023-02-28T09:50:49;3.92;;;1.55;;
19543;SDS011;9917;51.256;7.152;2023-02-28T09:53:19;2.65;;;1.52;;
19543;SDS011;9917;51.256;7.152;2023-02-28T09:55:48;3.25;;;1.75;;
19543;SDS011;9917;51.256;7.152;2023-02-28T09:58:18;3.22;;;1.58;;
19543;SDS011;9917;51.256;7.152;2023-02-28T10:00:50;1.92;;;1.35;;
19543;SDS011;9917;51.256;7.152;2023-02-28T10:03:30;3.65;;;1.70;;
19543;SDS011;9917;51.256;7.152;2023-02-28T10:06:01;2.17;;;1.33;;
19543;SDS011;9917;51.256;7.152;2023-02-28T10:08:33;2.87;;;1.30;;
19543;SDS011;9917;51.256;7.152;2023-02-28T10:11:03;5.23;;;1.40;;
19543;SDS011;9917;51.256;7.152;2023-02-28T10:13:33;2.67;;;1.60;;
19543;SDS011;9917;51.256;7.152;2023-02-28T10:16:02;4.77;;;1.77;;
19543;SDS011;9917;51.256;7.152;2023-02-28T10:18:35;6.10;;;3.40;;
19543;SDS011;9917;51.256;7.152;2023-02-28T10:21:08;3.67;;;1.60;;
19543;SDS011;9917;51.256;7.152;2023-02-28T10:23:42;2.57;;;1.70;;
19543;SDS011;9917;51.256;7.152;2023-02-28T10:26:09;5.50;;;1.77;;
19543;SDS011;9917;51.256;7.152;2023-02-28T10:28:38;4.67;;;1.87;;
19543;SDS011;9917;51.256;7.152;2023-02-28T10:31:04;1.73;;;1.23;;
19543;SDS011;9917;51.256;7.152;2023-02-28T10:33:35;2.50;;;1.30;;
19543;SDS011;9917;51.256;7.152;2023-02-28T10:36:01;1.98;;;1.20;;
19543;SDS011;9917;51.256;7.152;2023-02-28T10:38:31;2.30;;;1.20;;
19543;SDS011;9917;51.256;7.152;2023-02-28T10:41:04;2.92;;;1.25;;
19543;SDS011;9917;51.256;7.152;2023-02-28T10:43:32;5.03;;;1.20;;
19543;SDS011;9917;51.256;7.152;2023-02-28T10:45:59;3.45;;;1.10;;
19543;SDS011;9917;51.256;7.152;2023-02-28T10:48:32;2.00;;;0.98;;
19543;SDS011;9917;51.256;7.152;2023-02-28T10:51:02;3.30;;;1.55;;
19543;SDS011;9917;51.256;7.152;2023-02-28T10:53:31;1.70;;;1.17;;
19543;SDS011;9917;51.256;7.152;2023-02-28T10:56:03;3.20;;;1.15;;
19543;SDS011;9917;51.256;7.152;2023-02-28T10:58:31;2.83;;;1.00;;
19543;SDS011;9917;51.256;7.152;2023-02-28T11:01:12;1.98;;;1.05;;
19543;SDS011;9917;51.256;7.152;2023-02-28T11:03:41;2.85;;;0.98;;
19543;SDS011;9917;51.256;7.152;2023-02-28T11:06:07;1.88;;;1.00;;
19543;SDS011;9917;51.256;7.152;2023-02-28T11:08:43;2.75;;;1.15;;
19543;SDS011;9917;51.256;7.152;2023-02-28T11:11:10;3.92;;;1.00;;
19543;SDS011;9917;51.256;7.152;2023-02-28T11:13:36;2.30;;;1.10;;
19543;SDS011;9917;51.256;7.152;2023-02-28T11:16:03;1.35;;;0.93;;
19543;SDS011;9917;51.256;7.152;2023-02-28T11:18:32;2.85;;;1.30;;
19543;SDS011;9917;51.256;7.152;2023-02-28T11:21:05;2.13;;;1.17;;
19543;SDS011;9917;51.256;7.152;2023-02-28T11:23:32;2.92;;;1.02;;
19543;SDS011;9917;51.256;7.152;2023-02-28T11:26:02;1.85;;;0.80;;
19543;SDS011;9917;51.256;7.152;2023-02-28T11:28:30;1.30;;;0.80;;
19543;SDS011;9917;51.256;7.152;2023-02-28T11:31:02;2.42;;;1.10;;
19543;SDS011;9917;51.256;7.152;2023-02-28T11:33:30;1.88;;;0.77;;
19543;SDS011;9917;51.256;7.152;2023-02-28T11:35:58;3.10;;;1.15;;
19543;SDS011;9917;51.256;7.152;2023-02-28T11:38:28;1.90;;;1.20;;
19543;SDS011;9917;51.256;7.152;2023-02-28T11:41:02;2.13;;;0.90;;
19543;SDS011;9917;51.256;7.152;2023-02-28T11:43:46;2.10;;;1.00;;
19543;SDS011;9917;51.256;7.152;2023-02-28T11:46:33;2.47;;;1.00;;
19543;SDS011;9917;51.256;7.152;2023-02-28T11:49:10;2.58;;;1.02;;
19543;SDS011;9917;51.256;7.152;2023-02-28T11:51:47;2.83;;;0.98;;
19543;SDS011;9917;51.256;7.152;2023-02-28T11:54:23;2.08;;;0.95;;
19543;SDS011;9917;51.256;7.152;2023-02-28T11:56:58;2.38;;;0.88;;
19543;SDS011;9917;51.256;7.152;2023-02-28T11:59:42;1.92;;;0.85;;
19543;SDS011;9917;51.256;7.152;2023-02-28T12:02:21;2.38;;;1.00;;
19543;SDS011;9917;51.256;7.152;2023-02-28T12:04:52;2.70;;;1.00;;
19543;SDS011;9917;51.256;7.152;2023-02-28T12:07:35;3.13;;;0.98;;
19543;SDS011;9917;51.256;7.152;2023-02-28T12:10:15;4.00;;;1.30;;
19543;SDS011;9917;51.256;7.152;2023-02-28T12:12:48;5.32;;;1.05;;
19543;SDS011;9917;51.256;7.152;2023-02-28T12:15:36;2.33;;;1.10;;
19543;SDS011;9917;51.256;7.152;2023-02-28T12:21:15;2.88;;;1.17;;
19543;SDS011;9917;51.256;7.152;2023-02-28T12:23:52;4.40;;;0.95;;
19543;SDS011;9917;51.256;7.152;2023-02-28T12:26:36;3.13;;;1.02;;
19543;SDS011;9917;51.256;7.152;2023-02-28T12:29:04;3.00;;;1.00;;
19543;SDS011;9917;51.256;7.152;2023-02-28T12:31:38;2.25;;;1.00;;
19543;SDS011;9917;51.256;7.152;2023-02-28T12:34:13;2.40;;;1.15;;
19543;SDS011;9917;51.256;7.152;2023-02-28T12:36:43;4.68;;;1.08;;
19543;SDS011;9917;51.256;7.152;2023-02-28T12:39:12;2.92;;;0.98;;
19543;SDS011;9917;51.256;7.152;2023-02-28T12:41:45;4.70;;;1.30;;
19543;SDS011;9917;51.256;7.152;2023-02-28T12:44:15;2.38;;;0.98;;
19543;SDS011;9917;51.256;7.152;2023-02-28T12:46:45;3.28;;;1.45;;
19543;SDS011;9917;51.256;7.152;2023-02-28T12:49:14;2.65;;;1.30;;
19543;SDS011;9917;51.256;7.152;2023-02-28T12:51:42;2.38;;;1.08;;
19543;SDS011;9917;51.256;7.152;2023-02-28T12:54:12;1.55;;;1.10;;
19543;SDS011;9917;51.256;7.152;2023-02-28T12:56:47;2.30;;;1.10;;
19543;SDS011;9917;51.256;7.152;2023-02-28T12:59:21;3.30;;;1.33;;
19543;SDS011;9917;51.256;7.152;2023-02-28T13:01:59;4.22;;;1.58;;
19543;SDS011;9917;51.256;7.152;2023-02-28T13:04:42;3.88;;;1.20;;
19543;SDS011;9917;51.256;7.152;2023-02-28T13:07:42;4.85;;;1.30;;
19543;SDS011;9917;51.256;7.152;2023-02-28T13:10:37;3.45;;;1.20;;
19543;SDS011;9917;51.256;7.152;2023-02-28T13:13:11;3.40;;;1.30;;
19543;SDS011;9917;51.256;7.152;2023-02-28T13:15:40;2.28;;;1.13;;
19543;SDS011;9917;51.256;7.152;2023-02-28T13:18:27;2.15;;;1.10;;
19543;SDS011;9917;51.256;7.152;2023-02-28T13:21:01;1.38;;;0.95;;
19543;SDS011;9917;51.256;7.152;2023-02-28T13:23:37;3.38;;;1.05;;
19543;SDS011;9917;51.256;7.152;2023-02-28T13:26:22;3.22;;;1.10;;
19543;SDS011;9917;51.256;7.152;2023-02-28T13:34:47;1.58;;;1.13;;
19543;SDS011;9917;51.256;7.152;2023-02-28T13:37:54;3.95;;;1.20;;
19543;SDS011;9917;51.256;7.152;2023-02-28T13:40:49;4.38;;;1.33;;
19543;SDS011;9917;51.256;7.152;2023-02-28T13:43:16;3.45;;;1.40;;
19543;SDS011;9917;51.256;7.152;2023-02-28T13:48:34;1.95;;;1.10;;
19543;SDS011;9917;51.256;7.152;2023-02-28T13:54:06;2.03;;;1.13;;
19543;SDS011;9917;51.256;7.152;2023-02-28T13:56:52;2.15;;;1.40;;
19543;SDS011;9917;51.256;7.152;2023-02-28T13:59:28;1.75;;;1.20;;
19543;SDS011;9917;51.256;7.152;2023-02-28T14:02:11;1.65;;;1.08;;
19543;SDS011;9917;51.256;7.152;2023-02-28T14:05:02;2.97;;;1.35;;
19543;SDS011;9917;51.256;7.152;2023-02-28T14:07:31;2.92;;;1.30;;
19543;SDS011;9917;51.256;7.152;2023-02-28T14:10:02;1.63;;;1.00;;
19543;SDS011;9917;51.256;7.152;2023-02-28T14:18:24;2.08;;;1.15;;
19543;SDS011;9917;51.256;7.152;2023-02-28T14:20:54;1.83;;;1.05;;
19543;SDS011;9917;51.256;7.152;2023-02-28T14:29:42;3.13;;;1.45;;
19543;SDS011;9917;51.256;7.152;2023-02-28T14:32:33;4.60;;;1.60;;
19543;SDS011;9917;51.256;7.152;2023-02-28T14:35:16;3.15;;;1.40;;
19543;SDS011;9917;51.256;7.152;2023-02-28T14:37:55;4.75;;;2.40;;
19543;SDS011;9917;51.256;7.152;2023-02-28T14:40:24;3.25;;;1.50;;
19543;SDS011;9917;51.256;7.152;2023-02-28T14:42:55;2.38;;;1.20;;
19543;SDS011;9917;51.256;7.152;2023-02-28T14:45:22;2.70;;;1.30;;
19543;SDS011;9917;51.256;7.152;2023-02-28T14:47:48;2.13;;;1.40;;
19543;SDS011;9917;51.256;7.152;2023-02-28T14:50:21;1.80;;;1.23;;
19543;SDS011;9917;51.256;7.152;2023-02-28T14:52:51;5.63;;;1.95;;
19543;SDS011;9917;51.256;7.152;2023-02-28T14:55:18;2.92;;;1.52;;
19543;SDS011;9917;51.256;7.152;2023-02-28T14:57:51;3.08;;;1.42;;
19543;SDS011;9917;51.256;7.152;2023-02-28T15:00:20;3.63;;;1.83;;
19543;SDS011;9917;51.256;7.152;2023-02-28T15:02:48;4.63;;;1.58;;
19543;SDS011;9917;51.256;7.152;2023-02-28T15:05:24;3.55;;;1.73;;
19543;SDS011;9917;51.256;7.152;2023-02-28T15:08:00;3.03;;;1.48;;
19543;SDS011;9917;51.256;7.152;2023-02-28T15:10:31;2.17;;;1.60;;
19543;SDS011;9917;51.256;7.152;2023-02-28T15:12:58;3.88;;;1.83;;
19543;SDS011;9917;51.256;7.152;2023-02-28T15:15:28;3.55;;;1.75;;
19543;SDS011;9917;51.256;7.152;2023-02-28T15:18:04;4.07;;;2.25;;
19543;SDS011;9917;51.256;7.152;2023-02-28T15:20:34;3.15;;;2.10;;
19543;SDS011;9917;51.256;7.152;2023-02-28T15:23:01;3.97;;;2.42;;
19543;SDS011;9917;51.256;7.152;2023-02-28T15:25:27;4.00;;;2.40;;
19543;SDS011;9917;51.256;7.152;2023-02-28T15:27:54;3.47;;;2.40;;
19543;SDS011;9917;51.256;7.152;2023-02-28T15:30:21;5.00;;;2.60;;
19543;SDS011;9917;51.256;7.152;2023-02-28T15:33:07;3.13;;;2.40;;
19543;SDS011;9917;51.256;7.152;2023-02-28T15:35:44;6.75;;;2.30;;
19543;SDS011;9917;51.256;7.152;2023-02-28T15:38:15;4.72;;;2.58;;
19543;SDS011;9917;51.256;7.152;2023-02-28T15:40:42;4.15;;;2.63;;
19543;SDS011;9917;51.256;7.152;2023-02-28T15:43:13;3.50;;;2.60;;
19543;SDS011;9917;51.256;7.152;2023-02-28T15:45:41;3.95;;;2.35;;
19543;SDS011;9917;51.256;7.152;2023-02-28T15:48:15;7.55;;;2.35;;